createdAt,value
2022-10-08T00:01:31.485Z,84.68
2022-10-08T00:03:59.500Z,83.72
2022-10-08T00:06:33.693Z,84.03
2022-10-08T00:09:07.418Z,83.62
2022-10-08T00:11:39.844Z,84.39
2022-10-08T00:14:09.831Z,84.27
2022-10-08T00:16:40.196Z,84.90
2022-10-08T00:19:16.531Z,84.45
2022-10-08T00:21:45.876Z,84.30
2022-10-08T00:24:20.133Z,85.55
2022-10-08T00:26:48.032Z,86.66
2022-10-08T00:29:19.308Z,86.95
2022-10-08T00:31:49.319Z,86.24
2022-10-08T00:34:20.235Z,86.43
2022-10-08T00:36:53.188Z,85.64
2022-10-08T00:39:23.332Z,83.75
2022-10-08T00:41:53.710Z,84.22
2022-10-08T00:44:54.922Z,83.99
2022-10-08T00:47:33.427Z,84.59
2022-10-08T00:50:08.919Z,84.25
2022-10-08T00:52:43.647Z,84.88
2022-10-08T00:55:14.891Z,84.98
2022-10-08T00:57:48.163Z,84.81
2022-10-08T01:00:20.321Z,84.50
2022-10-08T01:02:49.062Z,83.89
2022-10-08T01:05:23.848Z,85.56
2022-10-08T01:08:03.881Z,86.84
2022-10-08T01:10:59.456Z,85.67
2022-10-08T01:14:12.656Z,84.53
2022-10-08T01:17:10.685Z,86.82
2022-10-08T01:20:01.529Z,86.63
2022-10-08T01:22:53.918Z,88.08
2022-10-08T01:25:39.907Z,89.98
2022-10-08T01:28:07.727Z,91.55
2022-10-08T01:30:39.952Z,92.20
2022-10-08T01:33:17.976Z,88.18
2022-10-08T01:35:54.249Z,89.56
2022-10-08T01:38:25.320Z,91.02
2022-10-08T01:41:00.555Z,90.86
2022-10-08T01:43:35.652Z,90.45
2022-10-08T01:46:12.358Z,90.13
2022-10-08T01:48:45.418Z,90.89
2022-10-08T01:51:19.928Z,91.25
2022-10-08T01:53:56.182Z,91.80
2022-10-08T01:56:28.325Z,93.16
2022-10-08T01:59:07.278Z,95.58
2022-10-08T02:01:49.996Z,94.26
2022-10-08T02:04:35.319Z,94.82
2022-10-08T02:07:11.892Z,95.51
2022-10-08T02:09:48.516Z,93.26
2022-10-08T02:12:16.639Z,94.62
2022-10-08T02:14:49.105Z,95.53
2022-10-08T02:17:50.567Z,96.06
2022-10-08T02:20:37.840Z,94.62
2022-10-08T02:24:09.879Z,93.82
2022-10-08T02:26:46.767Z,95.12
2022-10-08T02:29:29.149Z,96.00
2022-10-08T02:32:02.820Z,97.13
2022-10-08T02:34:35.303Z,98.25
2022-10-08T02:37:43.106Z,97.16
2022-10-08T02:40:15.304Z,98.27
2022-10-08T02:42:52.561Z,99.14
2022-10-08T02:45:33.526Z,99.62
2022-10-08T02:48:18.585Z,98.98
2022-10-08T02:50:51.576Z,98.78
2022-10-08T02:53:21.079Z,99.95
2022-10-08T02:56:04.980Z,100.00
2022-10-08T02:58:33.384Z,100.00
2022-10-08T03:01:10.172Z,100.00
2022-10-08T03:03:44.772Z,100.00
2022-10-08T03:06:16.236Z,100.00
2022-10-08T03:08:49.398Z,99.20
2022-10-08T03:11:19.561Z,99.55
2022-10-08T03:13:57.614Z,99.46
2022-10-08T03:16:32.102Z,99.13
2022-10-08T03:19:03.511Z,99.84
2022-10-08T03:21:33.017Z,99.08
2022-10-08T03:24:27.283Z,98.46
2022-10-08T03:26:55.287Z,96.80
2022-10-08T03:29:24.278Z,98.75
2022-10-08T03:31:52.080Z,97.82
2022-10-08T03:34:24.545Z,98.23
2022-10-08T03:36:55.339Z,97.27
2022-10-08T03:39:23.152Z,97.00
2022-10-08T03:41:51.126Z,97.03
2022-10-08T03:44:19.051Z,96.29
2022-10-08T03:46:46.750Z,95.03
2022-10-08T03:49:14.820Z,93.74
2022-10-08T03:51:44.806Z,94.03
2022-10-08T03:54:12.614Z,94.26
2022-10-08T03:56:43.999Z,94.25
2022-10-08T03:59:12.026Z,92.45
2022-10-08T04:01:39.903Z,95.35
2022-10-08T04:04:08.945Z,95.08
2022-10-08T04:06:36.840Z,95.42
2022-10-08T04:09:04.708Z,98.35
2022-10-08T04:11:32.546Z,98.69
2022-10-08T04:14:01.506Z,97.78
2022-10-08T04:16:29.492Z,99.67
2022-10-08T04:19:01.874Z,99.90
2022-10-08T04:21:30.800Z,99.67
2022-10-08T04:23:59.634Z,100.00
2022-10-08T04:26:27.547Z,99.71
2022-10-08T04:28:55.601Z,97.35
2022-10-08T04:31:24.189Z,93.21
2022-10-08T04:33:52.442Z,93.61
2022-10-08T04:36:23.212Z,91.96
2022-10-08T04:38:54.371Z,90.11
2022-10-08T04:41:24.836Z,88.40
2022-10-08T04:43:54.202Z,89.05
2022-10-08T04:46:26.079Z,89.96
2022-10-08T04:49:21.695Z,89.18
2022-10-08T04:52:12.613Z,89.58
2022-10-08T04:54:47.710Z,90.82
2022-10-08T04:57:19.603Z,91.14
2022-10-08T05:00:18.327Z,89.46
2022-10-08T05:02:52.246Z,88.54
2022-10-08T05:05:28.568Z,88.24
2022-10-08T05:08:27.734Z,88.10
2022-10-08T05:13:41.877Z,87.22
2022-10-08T05:16:11.970Z,86.27
2022-10-08T05:18:41.288Z,86.14
2022-10-08T05:21:13.625Z,89.53
2022-10-08T05:23:42.963Z,90.39
2022-10-08T05:26:18.751Z,89.14
2022-10-08T05:28:48.096Z,87.51
2022-10-08T05:31:16.553Z,88.85
2022-10-08T05:33:44.646Z,90.66
2022-10-08T05:36:32.832Z,90.06
2022-10-08T05:39:01.988Z,90.91
2022-10-08T05:41:36.924Z,91.71
2022-10-08T05:44:05.949Z,89.55
2022-10-08T05:46:36.193Z,88.58
2022-10-08T05:49:06.129Z,89.03
2022-10-08T05:51:34.703Z,90.63
2022-10-08T05:54:02.258Z,91.69
2022-10-08T05:56:31.647Z,90.95
2022-10-08T05:58:59.422Z,90.49
2022-10-08T06:01:29.531Z,89.61
2022-10-08T06:04:08.156Z,88.63
2022-10-08T06:06:37.994Z,90.10
2022-10-08T06:09:06.269Z,88.83
2022-10-08T06:11:36.094Z,90.53
2022-10-08T06:14:06.194Z,88.31
2022-10-08T06:16:35.138Z,87.68
2022-10-08T06:19:03.893Z,88.13
2022-10-08T06:21:32.077Z,87.68
2022-10-08T06:24:11.788Z,86.53
2022-10-08T06:26:41.812Z,87.92
2022-10-08T06:29:17.395Z,88.50
2022-10-08T06:31:45.101Z,87.02
2022-10-08T06:34:12.813Z,87.04
2022-10-08T06:36:40.720Z,86.66
2022-10-08T06:39:11.715Z,86.91
2022-10-08T06:41:39.320Z,87.58
2022-10-08T06:44:10.217Z,89.01
2022-10-08T06:46:37.842Z,90.03
2022-10-08T06:49:06.411Z,90.66
2022-10-08T06:51:34.513Z,88.24
2022-10-08T06:54:07.486Z,87.97
2022-10-08T06:56:37.956Z,83.27
2022-10-08T06:59:06.348Z,82.90
2022-10-08T07:01:35.531Z,84.93
2022-10-08T07:04:05.236Z,84.51
2022-10-08T07:06:33.213Z,83.54
2022-10-08T07:09:02.199Z,82.94
2022-10-08T07:11:32.162Z,82.11
2022-10-08T07:14:00.551Z,82.47
2022-10-08T07:16:28.785Z,81.66
2022-10-08T07:18:58.761Z,83.11
2022-10-08T07:21:27.874Z,80.49
2022-10-08T07:23:55.453Z,73.84
2022-10-08T07:26:25.931Z,66.26
2022-10-08T07:28:59.293Z,64.49
2022-10-08T07:31:30.278Z,61.98
2022-10-08T07:33:59.257Z,59.27
2022-10-08T07:36:38.940Z,56.02
2022-10-08T07:39:11.926Z,58.89
2022-10-08T07:41:40.086Z,58.67
2022-10-08T07:44:08.563Z,52.35
2022-10-08T07:46:38.098Z,50.67
2022-10-08T07:49:05.837Z,54.44
2022-10-08T07:51:34.420Z,58.76
2022-10-08T07:54:27.187Z,60.38
2022-10-08T08:00:25.231Z,50.24
2022-10-08T08:02:58.550Z,48.29
2022-10-08T08:05:38.501Z,44.11
2022-10-08T08:08:59.345Z,42.58
2022-10-08T08:15:06.662Z,40.32
2022-10-08T08:18:21.348Z,39.76
2022-10-08T08:28:18.760Z,41.07
2022-10-08T08:30:46.449Z,41.30
2022-10-08T08:33:32.331Z,39.99
2022-10-08T08:35:59.709Z,39.94
2022-10-08T08:38:26.999Z,37.88
2022-10-08T08:40:57.384Z,41.35
2022-10-08T08:43:25.303Z,39.28
2022-10-08T08:45:52.799Z,38.88
2022-10-08T08:48:26.722Z,41.28
2022-10-08T08:50:58.768Z,43.74
2022-10-08T08:53:27.611Z,40.31
2022-10-08T08:55:58.722Z,39.08
2022-10-08T08:58:41.477Z,42.85
2022-10-08T09:01:08.891Z,42.79
2022-10-08T09:03:43.395Z,43.08
2022-10-08T09:06:14.645Z,42.58
2022-10-08T09:08:53.557Z,42.28
2022-10-08T09:11:22.429Z,40.92
2022-10-08T09:14:05.922Z,41.10
2022-10-08T09:16:35.614Z,40.95
2022-10-08T09:19:03.013Z,38.72
2022-10-08T09:21:34.712Z,38.46
2022-10-08T09:24:02.131Z,39.66
2022-10-08T09:26:36.263Z,39.24
2022-10-08T09:29:05.053Z,36.89
2022-10-08T09:31:38.188Z,36.61
2022-10-08T09:34:13.130Z,37.40
2022-10-08T09:36:43.481Z,35.36
2022-10-08T09:39:20.983Z,37.23
2022-10-08T09:42:04.613Z,38.88
2022-10-08T09:45:03.728Z,39.23
2022-10-08T09:47:31.400Z,37.76
2022-10-08T09:50:05.815Z,36.91
2022-10-08T09:52:34.819Z,36.89
2022-10-08T09:55:08.223Z,42.27
2022-10-08T09:57:44.857Z,40.35
2022-10-08T10:00:24.482Z,38.72
2022-10-08T10:02:56.306Z,41.64
2022-10-08T10:05:28.737Z,41.91
2022-10-08T10:07:56.059Z,44.53
2022-10-08T10:10:35.810Z,44.61
2022-10-08T10:13:14.069Z,47.39
2022-10-08T10:15:46.917Z,47.02
2022-10-08T10:18:28.350Z,43.76
2022-10-08T10:21:11.543Z,46.27
2022-10-08T10:23:46.346Z,43.95
2022-10-08T10:26:21.868Z,47.74
2022-10-08T10:29:02.984Z,43.79
2022-10-08T10:31:52.613Z,50.18
2022-10-08T10:34:27.444Z,46.91
2022-10-08T10:36:59.059Z,46.90
2022-10-08T10:39:42.079Z,43.98
2022-10-08T10:42:19.121Z,43.86
2022-10-08T10:44:53.705Z,46.40
2022-10-08T10:47:27.093Z,45.83
2022-10-08T10:49:58.409Z,47.56
2022-10-08T10:52:43.751Z,48.95
2022-10-08T10:55:29.398Z,46.59
2022-10-08T10:58:15.180Z,44.64
2022-10-08T11:01:03.722Z,46.33
2022-10-08T11:03:53.307Z,44.66
2022-10-08T11:06:39.193Z,45.60
2022-10-08T11:09:16.095Z,44.16
2022-10-08T11:11:58.188Z,45.57
2022-10-08T11:15:12.782Z,47.32
2022-10-08T11:17:45.693Z,47.75
2022-10-08T11:20:18.720Z,46.25
2022-10-08T11:22:57.915Z,46.00
2022-10-08T11:26:16.414Z,46.86
2022-10-08T11:29:09.619Z,44.93
2022-10-08T11:31:51.441Z,46.60
2022-10-08T11:34:37.347Z,46.95
2022-10-08T11:37:16.263Z,46.25
2022-10-08T11:39:49.891Z,46.30
2022-10-08T11:42:48.167Z,48.03
2022-10-08T11:45:25.811Z,45.52
2022-10-08T11:47:58.412Z,46.40
2022-10-08T11:50:36.172Z,46.92
2022-10-08T11:53:15.498Z,45.78
2022-10-08T11:55:53.439Z,45.17
2022-10-08T11:58:30.654Z,47.80
2022-10-08T12:01:09.961Z,44.63
2022-10-08T12:03:40.810Z,45.51
2022-10-08T12:06:28.738Z,47.70
2022-10-08T12:08:57.342Z,44.41
2022-10-08T12:11:37.462Z,44.94
2022-10-08T12:14:17.120Z,44.74
2022-10-08T12:16:47.422Z,46.60
2022-10-08T12:19:35.813Z,44.63
2022-10-08T12:22:15.321Z,44.19
2022-10-08T12:24:50.239Z,44.76
2022-10-08T12:27:18.033Z,45.12
2022-10-08T12:30:13.903Z,45.23
2022-10-08T12:32:44.313Z,47.61
2022-10-08T12:35:41.623Z,45.70
2022-10-08T12:38:31.194Z,46.80
2022-10-08T12:41:23.398Z,44.93
2022-10-08T12:44:19.649Z,43.98
2022-10-08T12:47:16.517Z,45.76
2022-10-08T12:49:52.282Z,44.87
2022-10-08T12:52:21.100Z,44.31
2022-10-08T12:55:09.874Z,43.74
2022-10-08T12:57:40.612Z,43.00
2022-10-08T13:00:20.930Z,43.52
2022-10-08T13:03:06.157Z,43.13
2022-10-08T13:05:37.607Z,42.65
2022-10-08T13:08:19.100Z,42.60
2022-10-08T13:10:47.077Z,42.98
2022-10-08T13:13:38.228Z,42.95
2022-10-08T13:16:08.111Z,42.81
2022-10-08T13:18:37.122Z,42.16
2022-10-08T13:21:10.319Z,43.20
2022-10-08T13:23:40.390Z,46.14
2022-10-08T13:26:45.015Z,44.21
2022-10-08T13:29:18.395Z,43.62
2022-10-08T13:32:11.974Z,44.01
2022-10-08T13:35:00.758Z,42.65
2022-10-08T13:37:45.324Z,42.88
2022-10-08T13:40:13.202Z,43.08
2022-10-08T13:42:44.701Z,42.11
2022-10-08T13:45:17.289Z,45.48
2022-10-08T13:47:48.399Z,43.15
2022-10-08T13:50:21.374Z,44.14
2022-10-08T13:52:54.782Z,42.38
2022-10-08T13:55:31.436Z,41.56
2022-10-08T13:58:02.272Z,41.63
2022-10-08T14:00:33.572Z,41.58
2022-10-08T14:03:01.782Z,43.51
2022-10-08T14:05:31.810Z,43.21
2022-10-08T14:08:05.654Z,43.87
2022-10-08T14:10:33.428Z,42.70
2022-10-08T14:13:00.923Z,42.77
2022-10-08T14:15:28.484Z,42.52
2022-10-08T14:17:56.014Z,43.02
2022-10-08T14:20:23.671Z,42.64
2022-10-08T14:22:51.355Z,43.75
2022-10-08T14:25:31.221Z,42.89
2022-10-08T14:28:00.967Z,41.35
2022-10-08T14:30:28.762Z,40.62
2022-10-08T14:32:56.526Z,40.78
2022-10-08T14:35:24.135Z,41.62
2022-10-08T14:37:51.690Z,40.92
2022-10-08T14:40:22.521Z,41.36
2022-10-08T14:42:50.712Z,40.45
2022-10-08T14:45:18.602Z,41.43
2022-10-08T14:47:46.359Z,42.17
2022-10-08T14:50:14.091Z,43.83
2022-10-08T14:52:44.465Z,43.46
2022-10-08T14:55:14.235Z,42.55
2022-10-08T14:57:41.748Z,42.64
2022-10-08T15:00:13.930Z,42.80
2022-10-08T15:02:42.903Z,42.79
2022-10-08T15:05:10.375Z,43.51
2022-10-08T15:07:37.901Z,44.78
2022-10-08T15:10:05.721Z,44.09
2022-10-08T15:12:33.145Z,43.18
2022-10-08T15:15:00.563Z,43.29
2022-10-08T15:17:27.960Z,41.77
2022-10-08T15:19:56.489Z,42.63
2022-10-08T15:22:30.876Z,44.54
2022-10-08T15:24:58.458Z,47.47
2022-10-08T15:27:31.767Z,46.24
2022-10-08T15:29:59.120Z,44.70
2022-10-08T15:32:30.376Z,42.90
2022-10-08T15:34:58.292Z,46.83
2022-10-08T15:37:25.694Z,45.47
2022-10-08T15:39:53.026Z,44.49
2022-10-08T15:42:20.347Z,44.56
2022-10-08T15:44:47.886Z,47.83
2022-10-08T15:47:16.528Z,48.90
2022-10-08T15:49:45.903Z,46.36
2022-10-08T15:52:19.550Z,45.42
2022-10-08T15:54:47.533Z,48.54
2022-10-08T15:57:19.747Z,46.50
2022-10-08T15:59:47.207Z,47.05
2022-10-08T16:02:17.354Z,46.92
2022-10-08T16:04:47.272Z,50.41
2022-10-08T16:07:15.121Z,51.92
2022-10-08T16:09:42.625Z,51.47
2022-10-08T16:12:10.314Z,51.54
2022-10-08T16:14:37.773Z,50.44
2022-10-08T16:17:05.357Z,51.40
2022-10-08T16:19:32.898Z,52.89
2022-10-08T16:22:01.387Z,53.48
2022-10-08T16:24:29.022Z,54.82
2022-10-08T16:26:56.505Z,56.01
2022-10-08T16:29:24.090Z,56.24
2022-10-08T16:31:51.630Z,56.11
2022-10-08T16:34:22.703Z,57.08
2022-10-08T16:36:51.407Z,56.23
2022-10-08T16:39:21.376Z,55.72
2022-10-08T16:41:51.850Z,55.65
2022-10-08T16:44:20.985Z,55.91
2022-10-08T16:46:51.472Z,57.29
2022-10-08T16:49:24.578Z,57.72
2022-10-08T16:52:01.555Z,57.89
2022-10-08T16:54:29.423Z,57.19
2022-10-08T16:56:57.826Z,58.06
2022-10-08T16:59:27.347Z,58.33
2022-10-08T17:01:56.936Z,57.57
2022-10-08T17:04:26.155Z,59.26
2022-10-08T17:06:56.599Z,61.78
2022-10-08T17:09:24.233Z,63.05
2022-10-08T17:11:52.283Z,61.93
2022-10-08T17:14:19.810Z,61.78
2022-10-08T17:16:49.598Z,63.15
2022-10-08T17:19:17.531Z,60.37
2022-10-08T17:21:45.573Z,62.70
2022-10-08T17:24:13.388Z,63.78
2022-10-08T17:26:42.015Z,62.75
2022-10-08T17:29:11.207Z,63.68
2022-10-08T17:31:39.623Z,65.46
2022-10-08T17:34:07.769Z,63.47
2022-10-08T17:36:37.938Z,63.98
2022-10-08T17:39:08.561Z,67.18
2022-10-08T17:41:38.109Z,68.12
2022-10-08T17:44:15.576Z,67.70
2022-10-08T17:46:46.250Z,67.22
2022-10-08T17:49:17.475Z,66.92
2022-10-08T17:52:03.637Z,66.86
2022-10-08T17:54:31.214Z,66.81
2022-10-08T17:57:00.014Z,66.07
2022-10-08T17:59:28.647Z,67.20
2022-10-08T18:01:56.566Z,68.11
2022-10-08T18:04:24.146Z,67.87
2022-10-08T18:06:51.644Z,69.00
2022-10-08T18:09:20.954Z,70.06
2022-10-08T18:11:52.120Z,70.34
2022-10-08T18:14:22.527Z,69.01
2022-10-08T18:16:51.551Z,69.28
2022-10-08T18:19:19.349Z,69.35
2022-10-08T18:21:47.173Z,70.98
2022-10-08T18:24:18.539Z,71.37
2022-10-08T18:26:46.848Z,68.66
2022-10-08T18:29:16.314Z,67.56
2022-10-08T18:31:44.777Z,70.81
2022-10-08T18:34:15.407Z,69.56
2022-10-08T18:36:43.545Z,69.53
2022-10-08T18:39:13.557Z,68.08
2022-10-08T18:44:27.223Z,67.30
